createdAt,value
2022-12-20T00:01:02.509Z,83.77
2022-12-20T00:11:07.646Z,83.72
2022-12-20T00:21:12.670Z,83.51
2022-12-20T00:31:18.772Z,83.32
2022-12-20T00:41:23.415Z,83.16
2022-12-20T00:51:29.244Z,84.21
2022-12-20T01:01:34.819Z,84.59
2022-12-20T01:11:39.735Z,83.59
2022-12-20T01:21:44.983Z,84.08
2022-12-20T01:31:49.946Z,82.12
2022-12-20T01:41:52.979Z,82.72
2022-12-20T01:51:59.771Z,83.29
2022-12-20T02:02:06.069Z,82.79
2022-12-20T02:12:15.791Z,83.57
2022-12-20T02:22:29.912Z,83.36
2022-12-20T02:32:38.324Z,82.30
2022-12-20T02:42:41.180Z,81.36
2022-12-20T02:52:45.696Z,82.09
2022-12-20T03:03:06.630Z,82.02
2022-12-20T03:13:10.907Z,81.35
2022-12-20T03:23:13.819Z,83.15
2022-12-20T03:33:17.928Z,85.43
2022-12-20T03:43:20.672Z,86.74
2022-12-20T03:53:24.890Z,87.75
2022-12-20T04:03:27.771Z,89.50
2022-12-20T04:13:31.833Z,90.76
2022-12-20T04:23:35.380Z,91.60
2022-12-20T04:33:39.832Z,93.39
2022-12-20T04:43:42.554Z,93.77
2022-12-20T04:53:50.192Z,93.08
2022-12-20T05:03:53.429Z,92.54
2022-12-20T05:13:57.535Z,93.37
2022-12-20T05:24:17.824Z,93.82
2022-12-20T05:34:22.061Z,94.00
2022-12-20T05:44:24.830Z,94.35
2022-12-20T05:54:30.079Z,94.61
2022-12-20T06:04:32.897Z,94.36
2022-12-20T06:14:37.014Z,93.82
2022-12-20T06:24:47.631Z,93.12
2022-12-20T06:34:53.268Z,93.31
2022-12-20T06:44:56.024Z,92.69
2022-12-20T06:55:00.107Z,91.43
2022-12-20T07:05:02.907Z,92.11
2022-12-20T07:15:08.378Z,92.14
2022-12-20T07:25:11.589Z,91.80
2022-12-20T07:35:16.772Z,92.96
2022-12-20T07:45:19.774Z,95.51
2022-12-20T07:55:24.148Z,98.07
2022-12-20T08:05:28.313Z,98.19
2022-12-20T08:15:32.525Z,98.32
2022-12-20T08:25:41.255Z,99.51
2022-12-20T08:35:46.307Z,99.66
2022-12-20T08:45:53.627Z,99.11
2022-12-20T08:56:04.971Z,98.76
2022-12-20T09:06:09.848Z,97.31
2022-12-20T09:16:15.459Z,96.62
2022-12-20T09:26:18.819Z,94.88
2022-12-20T09:36:25.063Z,93.63
2022-12-20T09:46:28.743Z,92.07
2022-12-20T09:56:37.119Z,90.37
2022-12-20T10:06:50.645Z,88.49
2022-12-20T10:16:59.590Z,88.21
2022-12-20T10:27:12.474Z,89.11
2022-12-20T10:37:16.986Z,88.47
2022-12-20T10:47:26.958Z,87.83
2022-12-20T10:57:31.779Z,90.66
2022-12-20T11:07:36.057Z,92.79
2022-12-20T11:17:46.478Z,95.73
2022-12-20T11:28:00.612Z,97.55
2022-12-20T11:38:12.994Z,98.10
2022-12-20T11:48:40.984Z,99.43
2022-12-20T11:58:54.429Z,100.77
2022-12-20T12:09:09.617Z,100.68
2022-12-20T12:19:15.663Z,100.96
2022-12-20T12:29:20.769Z,100.95
2022-12-20T12:39:51.624Z,101.00
2022-12-20T12:49:55.583Z,100.68
2022-12-20T12:59:59.675Z,100.97
2022-12-20T13:10:29.453Z,100.98
2022-12-20T13:20:35.836Z,101.28
2022-12-20T13:30:39.600Z,101.51
2022-12-20T13:40:46.030Z,101.87
2022-12-20T13:50:50.928Z,102.03
2022-12-20T14:01:04.669Z,102.25
2022-12-20T14:11:12.274Z,101.66
2022-12-20T14:21:17.036Z,101.76
2022-12-20T14:31:28.695Z,101.11
2022-12-20T14:41:36.581Z,100.99
2022-12-20T14:51:40.558Z,100.38
2022-12-20T15:01:45.035Z,100.70
2022-12-20T15:11:49.093Z,101.38
2022-12-20T15:21:53.239Z,101.37
2022-12-20T15:32:06.156Z,101.09
2022-12-20T15:42:16.478Z,101.36
2022-12-20T15:52:20.843Z,101.41
2022-12-20T16:02:27.195Z,102.25
2022-12-20T16:12:34.084Z,101.55
2022-12-20T16:22:38.298Z,101.83
2022-12-20T16:32:41.152Z,101.54
2022-12-20T16:42:45.306Z,101.08
2022-12-20T16:52:50.224Z,100.99
2022-12-20T17:02:54.636Z,100.84
2022-12-20T17:12:58.026Z,101.28
2022-12-20T17:33:22.185Z,101.15
2022-12-20T17:43:26.354Z,100.95
2022-12-20T17:53:29.107Z,101.65
2022-12-20T18:04:05.001Z,101.15
2022-12-20T18:13:58.354Z,102.18
2022-12-20T18:24:02.804Z,102.51
2022-12-20T18:34:06.364Z,102.26
2022-12-20T18:44:11.569Z,102.57
2022-12-20T18:54:14.863Z,102.51
2022-12-20T19:04:24.230Z,102.63
2022-12-20T19:14:27.865Z,102.53
2022-12-20T19:24:31.954Z,102.54
2022-12-20T19:34:34.727Z,102.64
2022-12-20T19:44:38.820Z,102.51
2022-12-20T19:54:43.056Z,102.67
2022-12-20T20:04:47.188Z,103.17
2022-12-20T20:14:52.308Z,103.57
2022-12-20T20:24:56.484Z,103.67
2022-12-20T20:34:59.433Z,103.76
2022-12-20T20:45:04.033Z,103.70
2022-12-20T20:55:07.853Z,103.76
2022-12-20T21:15:35.974Z,104.32
2022-12-20T21:25:40.306Z,104.08
2022-12-20T21:35:47.082Z,104.04
2022-12-20T21:45:54.073Z,103.74
2022-12-20T21:55:57.487Z,103.77
2022-12-20T22:06:01.976Z,103.75
2022-12-20T22:16:06.741Z,103.94
2022-12-20T22:26:13.551Z,103.85
2022-12-20T22:36:17.429Z,103.88
2022-12-20T22:46:21.830Z,103.91
2022-12-20T22:56:24.868Z,103.55
2022-12-20T23:06:28.976Z,103.66
2022-12-20T23:16:32.106Z,104.00
2022-12-20T23:26:38.444Z,103.88
2022-12-20T23:36:41.369Z,103.85
2022-12-20T23:46:45.700Z,103.56
2022-12-20T23:56:48.506Z,103.43
